Time;durP1;ratioP1;P1;durP2;ratioP2;P2;SDS_P1;SDS_P2;PMS_P1;PMS_P2;Temp;Humidity;BMP_temperature;BMP_pressure;BME280_temperature;BME280_humidity;BME280_pressure;Samples;Min_cycle;Max_cycle;Signal;HPM_P1;HPM_P2
2023/10/21 00:00:14;;;;;;;;;;;19.90;51.40;;;;;;1519489;76;743;-59
2023/10/21 00:02:16;;;;;;;;;;;19.90;51.30;;;;;;1519056;77;1105;-59
2023/10/21 00:04:18;;;;;;;;;;;19.90;51.40;;;;;;1527680;77;744;-59
2023/10/21 00:06:20;;;;;;;;;;;20.00;51.40;;;;;;1524689;76;698;-60
2023/10/21 00:08:22;;;;;;;;;;;19.90;51.30;;;;;;1524123;76;1936;-60
2023/10/21 00:10:24;;;;;;;;;;;19.90;51.30;;;;;;1524626;77;689;-59
2023/10/21 00:12:26;;;;;;;;;;;19.90;51.30;;;;;;1524837;77;1623;-60
2023/10/21 00:14:27;;;;;;;;;;;19.90;51.30;;;;;;1526724;76;732;-59
2023/10/21 00:16:29;;;;;;;;;;;19.90;51.40;;;;;;1521242;77;727;-59
2023/10/21 00:18:31;;;;;;;;;;;19.90;51.30;;;;;;1515053;77;874;-60
2023/10/21 00:20:33;;;;;;;;;;;19.90;51.30;;;;;;1518524;77;1138;-60
2023/10/21 00:22:40;;;;;;;;;;;19.90;51.40;;;;;;1522469;76;759;-60
2023/10/21 00:24:39;;;;;;;;;;;19.90;51.30;;;;;;1523941;77;1259;-59
2023/10/21 00:26:44;;;;;;;;;;;19.90;51.30;;;;;;1523818;77;1833;-61
2023/10/21 00:28:46;;;;;;;;;;;19.90;51.40;;;;;;1517833;77;1936;-59
2023/10/21 00:30:49;;;;;;;;;;;19.90;51.40;;;;;;1523590;76;1269;-59
2023/10/21 00:32:51;;;;;;;;;;;19.90;51.40;;;;;;1530245;77;783;-60
2023/10/21 00:34:53;;;;;;;;;;;20.00;51.40;;;;;;1528913;77;723;-60
2023/10/21 00:36:56;;;;;;;;;;;19.90;51.30;;;;;;1527870;77;789;-60
2023/10/21 00:38:57;;;;;;;;;;;19.90;51.30;;;;;;1529312;76;1509;-59
2023/10/21 00:40:59;;;;;;;;;;;19.90;51.30;;;;;;1529365;77;1155;-59
2023/10/21 00:43:01;;;;;;;;;;;19.90;51.30;;;;;;1526256;77;753;-60
2023/10/21 00:45:03;;;;;;;;;;;19.90;51.30;;;;;;1528091;76;692;-58
2023/10/21 00:47:05;;;;;;;;;;;19.90;51.30;;;;;;1509416;77;695;-57
2023/10/21 00:49:07;;;;;;;;;;;19.90;51.40;;;;;;1522755;77;1958;-59
2023/10/21 00:51:09;;;;;;;;;;;19.90;51.40;;;;;;1520971;77;1143;-59
2023/10/21 00:53:11;;;;;;;;;;;19.90;51.40;;;;;;1525044;76;1586;-60
2023/10/21 00:55:14;;;;;;;;;;;19.90;51.40;;;;;;1522579;77;650;-59
2023/10/21 00:57:16;;;;;;;;;;;20.00;51.40;;;;;;1517425;77;693;-60
2023/10/21 00:59:18;;;;;;;;;;;19.90;51.40;;;;;;1528053;77;748;-59
2023/10/21 01:01:19;;;;;;;;;;;19.90;51.30;;;;;;1528554;77;1150;-59
2023/10/21 01:03:24;;;;;;;;;;;19.90;51.30;;;;;;1526589;76;646;-60
2023/10/21 01:05:26;;;;;;;;;;;19.90;51.30;;;;;;1517683;77;605;-59
2023/10/21 01:07:28;;;;;;;;;;;19.90;51.30;;;;;;1510699;77;1542;-59
2023/10/21 01:09:30;;;;;;;;;;;19.90;51.40;;;;;;1527242;77;1940;-60
2023/10/21 01:11:32;;;;;;;;;;;19.90;51.40;;;;;;1499162;79;1094;-60
2023/10/21 01:13:34;;;;;;;;;;;19.90;51.30;;;;;;1482705;78;753;-59
2023/10/21 01:15:36;;;;;;;;;;;20.00;51.40;;;;;;1457418;81;771;-59
2023/10/21 01:17:39;;;;;;;;;;;19.90;51.40;;;;;;1458022;81;721;-59
2023/10/21 01:19:41;;;;;;;;;;;20.00;51.40;;;;;;1450079;80;742;-59
2023/10/21 01:21:43;;;;;;;;;;;20.00;51.30;;;;;;1521894;76;1360;-59
2023/10/21 01:23:45;;;;;;;;;;;19.90;51.30;;;;;;1529022;77;665;-60
2023/10/21 01:25:47;;;;;;;;;;;19.90;51.30;;;;;;1523728;77;698;-60
2023/10/21 01:27:50;;;;;;;;;;;19.90;51.30;;;;;;1513416;77;759;-59
2023/10/21 01:29:52;;;;;;;;;;;20.00;51.30;;;;;;1525389;76;2107;-60
2023/10/21 01:31:54;;;;;;;;;;;19.90;51.30;;;;;;1521439;77;1189;-59
2023/10/21 01:33:56;;;;;;;;;;;19.90;51.30;;;;;;1521970;77;754;-59
2023/10/21 01:35:58;;;;;;;;;;;19.90;51.40;;;;;;1515603;77;1310;-59
2023/10/21 01:37:59;;;;;;;;;;;19.90;51.30;;;;;;1522990;77;794;-59
2023/10/21 01:40:01;;;;;;;;;;;19.80;51.20;;;;;;1526933;76;592;-59
2023/10/21 01:42:03;;;;;;;;;;;19.90;51.30;;;;;;1518104;77;1182;-59
2023/10/21 01:44:05;;;;;;;;;;;19.90;51.30;;;;;;1526920;76;709;-59
2023/10/21 01:46:07;;;;;;;;;;;19.90;51.40;;;;;;1526130;77;841;-60
2023/10/21 01:48:09;;;;;;;;;;;19.90;51.30;;;;;;1530416;77;718;-59
2023/10/21 01:50:11;;;;;;;;;;;19.90;51.40;;;;;;1525082;77;1944;-60
2023/10/21 01:52:13;;;;;;;;;;;19.90;51.40;;;;;;1517743;76;1125;-60
2023/10/21 01:54:15;;;;;;;;;;;19.90;51.30;;;;;;1529781;77;712;-60
2023/10/21 01:56:17;;;;;;;;;;;19.90;51.40;;;;;;1514489;77;671;-59
2023/10/21 01:58:19;;;;;;;;;;;19.80;51.30;;;;;;1525101;77;681;-59
2023/10/21 02:00:22;;;;;;;;;;;19.90;51.40;;;;;;1514475;77;719;-60
2023/10/21 02:02:23;;;;;;;;;;;19.90;51.30;;;;;;1525619;76;1080;-59
2023/10/21 02:04:25;;;;;;;;;;;19.90;51.40;;;;;;1523599;77;1561;-59
2023/10/21 02:06:27;;;;;;;;;;;19.90;51.30;;;;;;1519862;77;738;-59
2023/10/21 02:08:29;;;;;;;;;;;19.90;51.40;;;;;;1525564;76;652;-59
2023/10/21 02:10:31;;;;;;;;;;;19.90;51.40;;;;;;1514855;77;1931;-60
2023/10/21 02:12:33;;;;;;;;;;;19.90;51.40;;;;;;1522298;77;1137;-61
2023/10/21 02:14:35;;;;;;;;;;;19.90;51.30;;;;;;1521785;76;684;-60
2023/10/21 02:16:37;;;;;;;;;;;19.90;51.40;;;;;;1520621;77;738;-59
2023/10/21 02:18:38;;;;;;;;;;;19.90;51.40;;;;;;1519930;77;1357;-60
2023/10/21 02:20:40;;;;;;;;;;;19.90;51.40;;;;;;1523927;77;1162;-60
2023/10/21 02:22:42;;;;;;;;;;;19.90;51.40;;;;;;1522219;76;799;-59
2023/10/21 02:24:44;;;;;;;;;;;19.90;51.40;;;;;;1525937;77;726;-59
2023/10/21 02:26:46;;;;;;;;;;;19.90;51.40;;;;;;1521840;77;767;-60
2023/10/21 02:28:48;;;;;;;;;;;19.90;51.40;;;;;;1525895;77;1912;-59
2023/10/21 02:30:50;;;;;;;;;;;19.90;51.30;;;;;;1520206;76;1186;-59
2023/10/21 02:32:51;;;;;;;;;;;19.90;51.30;;;;;;1523928;77;1533;-59
2023/10/21 02:34:56;;;;;;;;;;;19.90;51.30;;;;;;1526734;77;620;-60
2023/10/21 02:36:58;;;;;;;;;;;19.90;51.40;;;;;;1524038;77;769;-59
2023/10/21 02:39:00;;;;;;;;;;;19.90;51.40;;;;;;1519592;76;737;-60
2023/10/21 02:41:05;;;;;;;;;;;19.90;51.30;;;;;;1520347;77;1106;-60
2023/10/21 02:43:07;;;;;;;;;;;19.90;51.40;;;;;;1522526;77;879;-59
2023/10/21 02:45:09;;;;;;;;;;;19.90;51.30;;;;;;1521358;76;649;-60
2023/10/21 02:47:12;;;;;;;;;;;19.90;51.40;;;;;;1525262;77;1693;-60
2023/10/21 02:49:14;;;;;;;;;;;19.90;51.40;;;;;;1517597;77;1935;-59
2023/10/21 02:51:17;;;;;;;;;;;19.90;51.40;;;;;;1525777;77;1129;-59
2023/10/21 02:53:19;;;;;;;;;;;19.90;51.40;;;;;;1530657;76;664;-60
2023/10/21 02:55:21;;;;;;;;;;;19.90;51.50;;;;;;1525813;77;809;-60
2023/10/21 02:57:23;;;;;;;;;;;19.90;51.40;;;;;;1522262;77;711;-61
2023/10/21 02:59:25;;;;;;;;;;;19.90;51.50;;;;;;1529068;76;1547;-59
2023/10/21 03:01:27;;;;;;;;;;;19.90;51.40;;;;;;1527095;77;1210;-60
2023/10/21 03:03:29;;;;;;;;;;;19.80;51.30;;;;;;1526028;76;675;-60
2023/10/21 03:05:31;;;;;;;;;;;19.90;51.40;;;;;;1516430;77;724;-59
2023/10/21 03:07:32;;;;;;;;;;;19.90;51.40;;;;;;1525666;76;839;-59
2023/10/21 03:09:34;;;;;;;;;;;19.90;51.40;;;;;;1527304;77;1936;-60
2023/10/21 03:11:36;;;;;;;;;;;19.90;51.50;;;;;;1517976;77;1081;-59
2023/10/21 03:13:38;;;;;;;;;;;19.90;51.50;;;;;;1529548;76;1541;-59
2023/10/21 03:15:40;;;;;;;;;;;19.90;51.50;;;;;;1526137;77;613;-59
2023/10/21 03:17:42;;;;;;;;;;;19.90;51.50;;;;;;1527590;77;691;-60
2023/10/21 03:19:44;;;;;;;;;;;19.90;51.50;;;;;;1521449;77;709;-59
2023/10/21 03:21:47;;;;;;;;;;;19.90;51.50;;;;;;1500421;77;1100;-60
2023/10/21 03:23:49;;;;;;;;;;;19.90;51.50;;;;;;1464300;81;668;-60
2023/10/21 03:25:56;;;;;;;;;;;19.90;51.50;;;;;;1479285;79;682;-59
2023/10/21 03:27:58;;;;;;;;;;;19.90;51.50;;;;;;1471342;80;1388;-59
2023/10/21 03:30:00;;;;;;;;;;;19.90;51.50;;;;;;1524219;76;1908;-59
2023/10/21 03:32:02;;;;;;;;;;;19.90;51.50;;;;;;1517696;77;1235;-59
2023/10/21 03:34:04;;;;;;;;;;;19.90;51.50;;;;;;1522680;77;783;-59
2023/10/21 03:36:06;;;;;;;;;;;19.90;51.50;;;;;;1505783;77;890;-59
2023/10/21 03:38:08;;;;;;;;;;;19.90;51.50;;;;;;1529962;76;719;-59
2023/10/21 03:40:10;;;;;;;;;;;19.90;51.50;;;;;;1513991;76;806;-59
2023/10/21 03:42:12;;;;;;;;;;;19.90;51.50;;;;;;1516485;77;1370;-59
2023/10/21 03:44:14;;;;;;;;;;;19.90;51.50;;;;;;1525040;76;691;-59
2023/10/21 03:46:17;;;;;;;;;;;19.90;51.40;;;;;;1529568;77;680;-59
2023/10/21 03:48:19;;;;;;;;;;;19.90;51.50;;;;;;1516382;77;794;-59
2023/10/21 03:50:20;;;;;;;;;;;19.90;51.50;;;;;;1526174;77;1915;-61
2023/10/21 03:52:22;;;;;;;;;;;19.90;51.50;;;;;;1522484;76;1202;-60
2023/10/21 03:54:24;;;;;;;;;;;19.90;51.50;;;;;;1529408;77;687;-60
2023/10/21 03:56:26;;;;;;;;;;;19.90;51.50;;;;;;1529194;77;1309;-59
2023/10/21 03:58:28;;;;;;;;;;;19.90;51.40;;;;;;1530362;77;693;-59
2023/10/21 04:00:30;;;;;;;;;;;19.90;51.40;;;;;;1521619;77;829;-60
2023/10/21 04:02:32;;;;;;;;;;;19.90;51.40;;;;;;1527912;76;1099;-59
2023/10/21 04:04:34;;;;;;;;;;;19.90;51.40;;;;;;1526555;77;806;-59
2023/10/21 04:06:35;;;;;;;;;;;19.90;51.50;;;;;;1517993;76;713;-59
2023/10/21 04:08:37;;;;;;;;;;;19.90;51.40;;;;;;1525138;76;733;-59
2023/10/21 04:10:39;;;;;;;;;;;19.90;51.40;;;;;;1521570;77;1937;-59
2023/10/21 04:12:42;;;;;;;;;;;19.90;51.40;;;;;;1524692;77;724;-59
2023/10/21 04:14:44;;;;;;;;;;;19.90;51.40;;;;;;1528784;76;774;-60
2023/10/21 04:16:46;;;;;;;;;;;19.90;51.40;;;;;;1516639;77;681;-59
2023/10/21 04:18:47;;;;;;;;;;;19.90;51.50;;;;;;1521697;77;767;-59
2023/10/21 04:20:49;;;;;;;;;;;19.90;51.50;;;;;;1526064;77;1177;-58
2023/10/21 04:22:51;;;;;;;;;;;19.90;51.50;;;;;;1526837;77;708;-60
2023/10/21 04:24:53;;;;;;;;;;;19.90;51.50;;;;;;1520335;76;1524;-59
2023/10/21 04:26:55;;;;;;;;;;;20.00;51.40;;;;;;1507183;77;885;-59
2023/10/21 04:28:57;;;;;;;;;;;19.90;51.40;;;;;;1527469;77;786;-60
2023/10/21 04:30:59;;;;;;;;;;;19.90;51.40;;;;;;1528798;77;1956;-59
2023/10/21 04:33:01;;;;;;;;;;;19.90;51.40;;;;;;1525629;76;699;-59
2023/10/21 04:35:04;;;;;;;;;;;19.90;51.50;;;;;;1527783;77;672;-59
2023/10/21 04:37:06;;;;;;;;;;;19.90;51.50;;;;;;1520600;77;683;-59
2023/10/21 04:39:08;;;;;;;;;;;19.80;51.30;;;;;;1519457;77;1572;-59
2023/10/21 04:41:10;;;;;;;;;;;20.00;51.40;;;;;;1523682;77;1179;-59
2023/10/21 04:43:12;;;;;;;;;;;19.90;51.40;;;;;;1529154;76;696;-60
2023/10/21 04:45:14;;;;;;;;;;;19.90;51.50;;;;;;1525124;76;747;-60
2023/10/21 04:47:18;;;;;;;;;;;19.90;51.50;;;;;;1521924;77;847;-60
2023/10/21 04:49:20;;;;;;;;;;;19.90;51.40;;;;;;1525034;77;770;-60
2023/10/21 04:51:22;;;;;;;;;;;19.90;51.50;;;;;;1517402;77;1947;-59
2023/10/21 04:53:24;;;;;;;;;;;19.80;51.30;;;;;;1526957;76;1594;-59
2023/10/21 04:55:26;;;;;;;;;;;19.90;51.50;;;;;;1521186;77;796;-60
2023/10/21 04:57:28;;;;;;;;;;;19.90;51.40;;;;;;1526695;77;728;-59
2023/10/21 04:59:30;;;;;;;;;;;19.80;51.30;;;;;;1524848;77;915;-59
2023/10/21 05:01:32;;;;;;;;;;;19.80;51.30;;;;;;1524105;76;1120;-60
2023/10/21 05:03:34;;;;;;;;;;;19.80;51.30;;;;;;1524063;77;749;-59
2023/10/21 05:05:37;;;;;;;;;;;19.90;51.40;;;;;;1526597;77;810;-59
2023/10/21 05:07:39;;;;;;;;;;;19.90;51.40;;;;;;1528419;76;1512;-59
2023/10/21 05:09:41;;;;;;;;;;;19.80;51.40;;;;;;1525132;77;1955;-59
2023/10/21 05:11:43;;;;;;;;;;;19.90;51.50;;;;;;1516814;77;1209;-59
2023/10/21 05:13:45;;;;;;;;;;;19.90;51.50;;;;;;1528898;77;708;-59
2023/10/21 05:15:47;;;;;;;;;;;19.90;51.50;;;;;;1523845;77;708;-59
2023/10/21 05:17:49;;;;;;;;;;;19.90;51.50;;;;;;1516245;77;753;-59
2023/10/21 05:19:51;;;;;;;;;;;19.90;51.50;;;;;;1524705;77;673;-60
2023/10/21 05:21:53;;;;;;;;;;;19.90;51.40;;;;;;1517378;76;1325;-60
2023/10/21 05:23:55;;;;;;;;;;;19.90;51.50;;;;;;1524436;77;704;-59
2023/10/21 05:25:57;;;;;;;;;;;19.90;51.50;;;;;;1520421;77;717;-59
2023/10/21 05:27:59;;;;;;;;;;;19.90;51.50;;;;;;1517204;77;711;-61
2023/10/21 05:30:00;;;;;;;;;;;19.90;51.50;;;;;;1525107;77;1944;-60
2023/10/21 05:32:02;;;;;;;;;;;19.90;51.50;;;;;;1530164;77;1115;-59
2023/10/21 05:34:04;;;;;;;;;;;19.90;51.40;;;;;;1529773;77;676;-59
2023/10/21 05:36:06;;;;;;;;;;;19.90;51.40;;;;;;1514835;77;726;-59
2023/10/21 05:38:08;;;;;;;;;;;19.90;51.50;;;;;;1527469;77;657;-59
2023/10/21 05:40:10;;;;;;;;;;;19.90;51.50;;;;;;1529904;76;719;-59
2023/10/21 05:42:12;;;;;;;;;;;19.80;51.30;;;;;;1524021;77;1144;-59
2023/10/21 05:44:14;;;;;;;;;;;19.90;51.50;;;;;;1531134;76;751;-60
2023/10/21 05:46:16;;;;;;;;;;;19.90;51.50;;;;;;1523014;77;738;-60
2023/10/21 05:48:18;;;;;;;;;;;19.90;51.50;;;;;;1526699;77;1559;-59
2023/10/21 05:50:21;;;;;;;;;;;19.80;51.30;;;;;;1523007;77;1961;-60
2023/10/21 05:52:23;;;;;;;;;;;19.90;51.50;;;;;;1524343;76;1151;-59
2023/10/21 05:54:24;;;;;;;;;;;19.90;51.50;;;;;;1523352;77;701;-59
2023/10/21 05:56:26;;;;;;;;;;;19.90;51.50;;;;;;1527574;77;718;-60
2023/10/21 05:58:28;;;;;;;;;;;19.90;51.50;;;;;;1522702;77;750;-60
2023/10/21 06:00:31;;;;;;;;;;;19.90;51.50;;;;;;1520843;77;904;-59
2023/10/21 06:02:33;;;;;;;;;;;19.90;51.50;;;;;;1525358;76;1540;-60
2023/10/21 06:04:34;;;;;;;;;;;19.90;51.40;;;;;;1523464;77;718;-60
2023/10/21 06:06:36;;;;;;;;;;;19.90;51.50;;;;;;1518713;76;746;-60
2023/10/21 06:08:38;;;;;;;;;;;19.90;51.50;;;;;;1526632;77;692;-59
2023/10/21 06:10:44;;;;;;;;;;;19.80;51.30;;;;;;1520927;77;1920;-60
2023/10/21 06:12:44;;;;;;;;;;;19.90;51.40;;;;;;1527646;77;1667;-60
2023/10/21 06:14:46;;;;;;;;;;;19.90;51.50;;;;;;1527769;76;666;-59
2023/10/21 06:16:48;;;;;;;;;;;19.90;51.50;;;;;;1529254;77;1575;-60
2023/10/21 06:18:50;;;;;;;;;;;19.90;51.50;;;;;;1523076;77;700;-59
2023/10/21 06:20:52;;;;;;;;;;;19.90;51.50;;;;;;1509666;77;1120;-59
2023/10/21 06:22:54;;;;;;;;;;;19.90;51.50;;;;;;1528587;76;706;-60
2023/10/21 06:24:55;;;;;;;;;;;19.90;51.50;;;;;;1518537;77;747;-59
2023/10/21 06:26:58;;;;;;;;;;;19.90;51.50;;;;;;1523477;77;707;-60
2023/10/21 06:29:00;;;;;;;;;;;19.80;51.40;;;;;;1519003;77;663;-59
2023/10/21 06:31:02;;;;;;;;;;;19.90;51.40;;;;;;1523378;77;1940;-60
2023/10/21 06:33:04;;;;;;;;;;;19.90;51.50;;;;;;1528077;76;747;-59
2023/10/21 06:35:07;;;;;;;;;;;20.00;51.50;;;;;;1522503;77;679;-59
2023/10/21 06:37:08;;;;;;;;;;;19.80;51.40;;;;;;1524033;77;811;-60
2023/10/21 06:39:10;;;;;;;;;;;19.90;51.50;;;;;;1526657;77;716;-59
2023/10/21 06:41:12;;;;;;;;;;;19.90;51.50;;;;;;1523426;76;1166;-59
2023/10/21 06:43:14;;;;;;;;;;;19.90;51.40;;;;;;1517681;76;707;-59
2023/10/21 06:45:16;;;;;;;;;;;19.90;51.40;;;;;;1523848;77;1576;-60
2023/10/21 06:47:18;;;;;;;;;;;19.90;51.40;;;;;;1525953;77;697;-59
2023/10/21 06:49:20;;;;;;;;;;;19.90;51.40;;;;;;1519603;77;693;-59
2023/10/21 06:51:22;;;;;;;;;;;19.90;51.40;;;;;;1524270;77;1936;-59
2023/10/21 06:53:25;;;;;;;;;;;19.90;51.40;;;;;;1528721;76;662;-59
2023/10/21 06:55:26;;;;;;;;;;;19.90;51.40;;;;;;1520129;77;751;-59
2023/10/21 06:57:28;;;;;;;;;;;19.90;51.40;;;;;;1520772;77;648;-60
2023/10/21 06:59:32;;;;;;;;;;;19.90;51.40;;;;;;1527053;77;1514;-60
2023/10/21 07:01:34;;;;;;;;;;;19.90;51.40;;;;;;1518186;76;1143;-59
2023/10/21 07:03:36;;;;;;;;;;;19.90;51.40;;;;;;1517804;77;753;-59
2023/10/21 07:05:40;;;;;;;;;;;19.90;51.40;;;;;;1522757;77;723;-60
2023/10/21 07:07:42;;;;;;;;;;;19.90;51.40;;;;;;1519218;76;694;-60
2023/10/21 07:09:44;;;;;;;;;;;19.80;51.30;;;;;;1525369;77;714;-60
2023/10/21 07:11:46;;;;;;;;;;;19.90;51.40;;;;;;1519889;77;1916;-59
2023/10/21 07:13:48;;;;;;;;;;;19.90;51.30;;;;;;1522329;76;1586;-60
2023/10/21 07:15:51;;;;;;;;;;;19.90;51.40;;;;;;1523610;77;937;-59
2023/10/21 07:17:53;;;;;;;;;;;19.90;51.40;;;;;;1529160;77;723;-60
2023/10/21 07:19:56;;;;;;;;;;;19.90;51.40;;;;;;1526347;77;758;-60
2023/10/21 07:21:58;;;;;;;;;;;19.90;51.50;;;;;;1522737;77;1120;-59
2023/10/21 07:24:00;;;;;;;;;;;19.90;51.40;;;;;;1524227;76;748;-59
2023/10/21 07:26:02;;;;;;;;;;;19.90;51.40;;;;;;1524703;77;736;-60
2023/10/21 07:28:04;;;;;;;;;;;19.90;51.40;;;;;;1522803;77;1568;-60
2023/10/21 07:30:07;;;;;;;;;;;19.90;51.40;;;;;;1529153;77;715;-60
2023/10/21 07:32:09;;;;;;;;;;;19.90;51.40;;;;;;1525113;76;1928;-60
2023/10/21 07:34:11;;;;;;;;;;;19.90;51.40;;;;;;1524639;77;681;-59
2023/10/21 07:36:13;;;;;;;;;;;19.90;51.40;;;;;;1528140;77;746;-60
2023/10/21 07:38:14;;;;;;;;;;;19.90;51.40;;;;;;1523097;77;738;-60
2023/10/21 07:40:16;;;;;;;;;;;19.90;51.40;;;;;;1520899;76;700;-61
2023/10/21 07:42:19;;;;;;;;;;;19.80;51.30;;;;;;1519640;77;1611;-60
2023/10/21 07:44:21;;;;;;;;;;;19.90;51.40;;;;;;1526101;76;684;-59
2023/10/21 07:46:23;;;;;;;;;;;19.90;51.40;;;;;;1525047;77;683;-60
2023/10/21 07:48:26;;;;;;;;;;;19.90;51.40;;;;;;1523943;76;879;-60
2023/10/21 07:50:28;;;;;;;;;;;19.90;51.40;;;;;;1523547;77;712;-60
2023/10/21 07:52:30;;;;;;;;;;;19.90;51.40;;;;;;1525822;77;1936;-59
2023/10/21 07:54:32;;;;;;;;;;;19.90;51.40;;;;;;1524148;76;832;-59
2023/10/21 07:56:33;;;;;;;;;;;19.90;51.40;;;;;;1524710;77;1658;-59
2023/10/21 07:58:35;;;;;;;;;;;19.90;51.40;;;;;;1525401;77;710;-59
2023/10/21 08:00:37;;;;;;;;;;;19.90;51.40;;;;;;1527348;77;1132;-59
2023/10/21 08:02:39;;;;;;;;;;;19.90;51.40;;;;;;1523271;76;723;-60
2023/10/21 08:04:41;;;;;;;;;;;19.90;51.40;;;;;;1514522;77;755;-59
2023/10/21 08:06:44;;;;;;;;;;;19.90;51.40;;;;;;1526740;76;765;-60
2023/10/21 08:08:46;;;;;;;;;;;19.90;51.40;;;;;;1517586;77;758;-59
2023/10/21 08:10:48;;;;;;;;;;;19.90;51.40;;;;;;1524918;77;1937;-59
2023/10/21 08:12:50;;;;;;;;;;;20.00;51.40;;;;;;1530387;77;737;-60
2023/10/21 08:14:52;;;;;;;;;;;19.90;51.40;;;;;;1520142;76;750;-59
2023/10/21 08:16:54;;;;;;;;;;;19.90;51.40;;;;;;1530053;77;722;-59
2023/10/21 08:18:58;;;;;;;;;;;19.90;51.40;;;;;;1528647;77;630;-59
2023/10/21 08:20:59;;;;;;;;;;;19.90;51.40;;;;;;1512728;76;1654;-60
2023/10/21 08:23:01;;;;;;;;;;;19.90;51.30;;;;;;1523094;77;1557;-60
2023/10/21 08:25:03;;;;;;;;;;;19.90;51.40;;;;;;1528940;77;615;-59
2023/10/21 08:27:06;;;;;;;;;;;19.90;51.40;;;;;;1526955;77;743;-59
2023/10/21 08:29:10;;;;;;;;;;;19.90;51.40;;;;;;1528563;76;629;-59
2023/10/21 08:31:11;;;;;;;;;;;19.90;51.30;;;;;;1520480;77;1936;-60
2023/10/21 08:33:13;;;;;;;;;;;19.90;51.30;;;;;;1521403;77;736;-60
2023/10/21 08:35:15;;;;;;;;;;;19.90;51.30;;;;;;1524257;77;731;-60
2023/10/21 08:37:17;;;;;;;;;;;19.90;51.30;;;;;;1519129;77;1349;-61
2023/10/21 08:39:20;;;;;;;;;;;19.90;51.40;;;;;;1516978;76;740;-60
2023/10/21 08:41:22;;;;;;;;;;;20.00;51.30;;;;;;1525843;77;1151;-61
2023/10/21 08:43:24;;;;;;;;;;;19.90;51.40;;;;;;1529452;76;685;-60
2023/10/21 08:45:26;;;;;;;;;;;19.90;51.30;;;;;;1529316;77;691;-59
2023/10/21 08:47:28;;;;;;;;;;;19.90;51.40;;;;;;1523589;77;778;-60
2023/10/21 08:49:30;;;;;;;;;;;19.90;51.40;;;;;;1527598;77;768;-59
2023/10/21 08:51:33;;;;;;;;;;;19.90;51.30;;;;;;1524816;76;1937;-61
2023/10/21 08:53:34;;;;;;;;;;;20.00;51.30;;;;;;1523535;77;750;-60
2023/10/21 08:55:36;;;;;;;;;;;19.90;51.30;;;;;;1514897;77;715;-60
2023/10/21 08:57:38;;;;;;;;;;;19.90;51.40;;;;;;1522300;76;762;-60
2023/10/21 08:59:40;;;;;;;;;;;20.10;51.50;;;;;;1521374;76;697;-60
2023/10/21 09:01:42;;;;;;;;;;;19.90;51.40;;;;;;1522774;77;1167;-60
2023/10/21 09:03:44;;;;;;;;;;;19.90;51.40;;;;;;1519483;77;706;-60
2023/10/21 09:06:04;;;;;;;;;;;19.90;51.30;;;;;;1518825;77;1534;-60
2023/10/21 09:08:06;;;;;;;;;;;19.90;51.40;;;;;;1520951;76;719;-60
2023/10/21 09:10:11;;;;;;;;;;;19.90;51.30;;;;;;1523762;77;738;-60
2023/10/21 09:12:17;;;;;;;;;;;19.90;51.30;;;;;;1520580;77;1922;-58
2023/10/21 09:14:19;;;;;;;;;;;19.90;51.30;;;;;;1521069;76;728;-60
2023/10/21 09:16:26;;;;;;;;;;;20.00;51.30;;;;;;1523370;77;697;-59
2023/10/21 09:18:28;;;;;;;;;;;19.90;51.30;;;;;;1520300;77;700;-59
2023/10/21 09:20:34;;;;;;;;;;;19.90;51.30;;;;;;1519444;77;1330;-59
2023/10/21 09:22:35;;;;;;;;;;;19.90;51.30;;;;;;1531767;76;1485;-59
2023/10/21 09:24:37;;;;;;;;;;;19.90;51.30;;;;;;1530699;77;676;-59
2023/10/21 09:26:39;;;;;;;;;;;19.90;51.30;;;;;;1528624;77;720;-58
2023/10/21 09:28:41;;;;;;;;;;;19.90;51.30;;;;;;1524002;77;725;-59
2023/10/21 09:30:43;;;;;;;;;;;19.90;51.30;;;;;;1524821;76;1148;-59
2023/10/21 09:32:46;;;;;;;;;;;19.90;51.30;;;;;;1497159;79;1941;-58
2023/10/21 09:34:50;;;;;;;;;;;19.90;51.30;;;;;;1480422;79;1553;-61
2023/10/21 09:36:52;;;;;;;;;;;20.00;51.30;;;;;;1457112;80;2005;-58
2023/10/21 09:38:56;;;;;;;;;;;19.90;51.30;;;;;;1489361;79;734;-58
2023/10/21 09:40:57;;;;;;;;;;;19.90;51.30;;;;;;1490824;78;1147;-58
2023/10/21 09:43:02;;;;;;;;;;;20.00;51.30;;;;;;1490568;79;1109;-59
2023/10/21 09:45:03;;;;;;;;;;;20.00;51.30;;;;;;1489839;79;1677;-59
2023/10/21 09:47:06;;;;;;;;;;;19.90;51.30;;;;;;1485241;79;696;-59
2023/10/21 09:49:08;;;;;;;;;;;20.00;51.30;;;;;;1486810;78;1563;-57
2023/10/21 09:51:10;;;;;;;;;;;19.90;51.30;;;;;;1487724;79;1178;-59
2023/10/21 09:53:13;;;;;;;;;;;19.90;51.30;;;;;;1474028;80;1920;-57
2023/10/21 09:55:15;;;;;;;;;;;19.90;51.30;;;;;;1528580;77;737;-59
2023/10/21 09:57:17;;;;;;;;;;;19.90;51.30;;;;;;1527359;77;735;-57
2023/10/21 09:59:19;;;;;;;;;;;19.90;51.30;;;;;;1527165;76;762;-59
2023/10/21 10:01:26;;;;;;;;;;;19.90;51.40;;;;;;1515321;77;1624;-58
2023/10/21 10:03:26;;;;;;;;;;;19.90;51.30;;;;;;1520759;77;1597;-60
2023/10/21 10:05:28;;;;;;;;;;;19.90;51.30;;;;;;1518387;77;688;-59
2023/10/21 10:07:30;;;;;;;;;;;19.90;51.40;;;;;;1522155;76;769;-57
2023/10/21 10:09:39;;;;;;;;;;;20.00;51.30;;;;;;1521413;77;730;-58
2023/10/21 10:11:42;;;;;;;;;;;19.90;51.30;;;;;;1525801;77;1969;-59
2023/10/21 10:13:46;;;;;;;;;;;19.90;51.30;;;;;;1518558;76;732;-57
2023/10/21 10:15:48;;;;;;;;;;;19.90;51.30;;;;;;1529270;77;1512;-60
2023/10/21 10:17:50;;;;;;;;;;;19.90;51.30;;;;;;1530639;77;789;-60
2023/10/21 10:19:53;;;;;;;;;;;19.90;51.30;;;;;;1518336;77;753;-60
2023/10/21 10:21:57;;;;;;;;;;;19.90;51.30;;;;;;1512547;76;1149;-59
2023/10/21 10:23:59;;;;;;;;;;;19.90;51.30;;;;;;1525662;77;776;-57
2023/10/21 10:26:01;;;;;;;;;;;19.90;51.30;;;;;;1492364;79;1286;-58
2023/10/21 10:28:11;;;;;;;;;;;19.90;51.30;;;;;;1474084;80;695;-59
2023/10/21 10:30:19;;;;;;;;;;;20.00;51.30;;;;;;1486496;79;1567;-59
2023/10/21 10:32:17;;;;;;;;;;;19.90;51.30;;;;;;1450079;80;1945;-59
2023/10/21 10:34:19;;;;;;;;;;;19.90;51.30;;;;;;1526460;77;765;-59
2023/10/21 10:36:23;;;;;;;;;;;20.00;51.30;;;;;;1525842;77;698;-60
2023/10/21 10:38:31;;;;;;;;;;;19.90;51.30;;;;;;1520967;77;1245;-59
2023/10/21 10:40:34;;;;;;;;;;;20.00;51.30;;;;;;1518274;76;2107;-58
2023/10/21 10:42:36;;;;;;;;;;;19.90;51.30;;;;;;1518224;77;702;-60
2023/10/21 10:44:38;;;;;;;;;;;19.90;51.40;;;;;;1520693;76;1314;-59
2023/10/21 10:46:41;;;;;;;;;;;19.90;51.30;;;;;;1529801;77;734;-60
2023/10/21 10:48:43;;;;;;;;;;;19.90;51.40;;;;;;1527818;77;732;-57
2023/10/21 10:50:45;;;;;;;;;;;19.90;51.30;;;;;;1523150;77;1175;-58
2023/10/21 10:52:46;;;;;;;;;;;19.90;51.30;;;;;;1522631;77;1934;-60
2023/10/21 10:54:48;;;;;;;;;;;19.90;51.30;;;;;;1525660;76;737;-60
2023/10/21 10:56:50;;;;;;;;;;;19.90;51.30;;;;;;1522146;77;732;-60
2023/10/21 10:58:52;;;;;;;;;;;19.90;51.30;;;;;;1526242;77;1493;-60
2023/10/21 11:00:54;;;;;;;;;;;19.90;51.30;;;;;;1524632;77;1158;-61
2023/10/21 11:02:56;;;;;;;;;;;20.00;51.30;;;;;;1528233;76;805;-59
2023/10/21 11:05:00;;;;;;;;;;;20.00;51.30;;;;;;1523172;77;873;-58
2023/10/21 11:07:03;;;;;;;;;;;19.90;51.30;;;;;;1523645;76;698;-59
2023/10/21 11:09:05;;;;;;;;;;;19.90;51.30;;;;;;1525493;77;701;-59
2023/10/21 11:11:10;;;;;;;;;;;19.90;51.30;;;;;;1524189;77;1187;-59
2023/10/21 11:13:10;;;;;;;;;;;20.00;51.30;;;;;;1520417;76;1973;-59
2023/10/21 11:15:12;;;;;;;;;;;19.90;51.30;;;;;;1521494;76;762;-58
2023/10/21 11:17:14;;;;;;;;;;;19.90;51.30;;;;;;1528581;77;786;-58
2023/10/21 11:19:16;;;;;;;;;;;19.90;51.30;;;;;;1518487;77;844;-60
2023/10/21 11:21:20;;;;;;;;;;;20.00;51.30;;;;;;1516124;76;1167;-60
2023/10/21 11:23:23;;;;;;;;;;;19.90;51.30;;;;;;1518939;77;1803;-59
2023/10/21 11:25:25;;;;;;;;;;;19.90;51.30;;;;;;1530131;77;797;-57
2023/10/21 11:27:27;;;;;;;;;;;19.90;51.30;;;;;;1490906;79;1597;-60
2023/10/21 11:29:29;;;;;;;;;;;19.90;51.30;;;;;;1489260;79;752;-58
2023/10/21 11:31:31;;;;;;;;;;;20.00;51.30;;;;;;1456978;79;1175;-60
2023/10/21 11:33:33;;;;;;;;;;;20.00;51.30;;;;;;1491362;79;1928;-60
2023/10/21 11:35:35;;;;;;;;;;;19.90;51.30;;;;;;1472046;79;663;-60
2023/10/21 11:37:40;;;;;;;;;;;20.00;51.30;;;;;;1465998;79;782;-57
2023/10/21 11:39:41;;;;;;;;;;;20.00;51.30;;;;;;1477575;79;665;-59
2023/10/21 11:41:44;;;;;;;;;;;19.90;51.30;;;;;;1467088;79;1723;-58
2023/10/21 11:43:48;;;;;;;;;;;19.90;51.30;;;;;;1470403;79;789;-60
2023/10/21 11:45:49;;;;;;;;;;;20.00;51.40;;;;;;1472565;80;764;-59
2023/10/21 11:47:53;;;;;;;;;;;19.90;51.30;;;;;;1445517;81;716;-60
2023/10/21 11:49:55;;;;;;;;;;;19.90;51.30;;;;;;1470968;80;715;-58
2023/10/21 11:51:57;;;;;;;;;;;20.00;51.30;;;;;;1470373;79;1163;-58
2023/10/21 11:53:59;;;;;;;;;;;19.90;51.30;;;;;;1474713;80;2128;-58
2023/10/21 11:56:53;;;;;;;;;;;19.90;51.30;;;;;;1457541;80;854;-58
2023/10/21 12:07:30;;;;;;;;;;;20.00;51.30;;;;;;1520960;76;855;-59
2023/10/21 12:20:53;;;;;;;;;;;19.90;51.30;;;;;;1526127;77;709;-59
2023/10/21 12:36:34;;;;;;;;;;;19.90;51.30;;;;;;1523015;77;1650;-60
2023/10/21 12:41:37;;;;;;;;;;;20.00;51.30;;;;;;1493051;77;1150;-60
2023/10/21 12:43:22;;;;;;;;;;;20.00;51.30;;;;;;1506806;77;1179;-60
2023/10/21 12:45:03;;;;;;;;;;;20.00;51.30;;;;;;1521137;76;1478;-60